Freeport, West Virginia
Current Conditions -  °F | °C
As of 10:53 AM on Friday 21 Nov 2014 (Local Time) from KPKB Reporting Station
Clear Clear  
Wind Chill: 28°   Ceiling: Unl
Heat Index: 28°   Visibility: 10mi
Dew Point: 12°   Wind: 3mph
Humidity: 51%   Direction: NA
Pressure: 30.54"   Gusts: NA
Location:  39.185°N, 81.3645°W
Report Text: KPKB 211553Z VRB03KT 10SM CLR M02/M11 A3054 RMK AO2 SLP351 T10221111
Loading
Personal Weather Stations






























Interactive Weather Map New forecast layout! Learn more

10-Day Weather Forecast

Advertisements
Track Severe Weather on mobile